Time;durP1;ratioP1;P1;durP2;ratioP2;P2;SDS_P1;SDS_P2;PMS_P1;PMS_P2;Temp;Humidity;BMP_temperature;BMP_pressure;BME280_temperature;BME280_humidity;BME280_pressure;Samples;Min_cycle;Max_cycle;Signal;HPM_P1;HPM_P2
2023/10/13 00:01:48;;;;;;;;;13.75;12.75;;;;;;;;5076972;28;46628;-62
2023/10/13 00:04:13;;;;;;;;;11.40;9.80;;;;;;;;5077360;28;45411;-62
2023/10/13 00:06:38;;;;;;;;;12.00;10.00;;;;;;;;5092819;27;45431;-63
2023/10/13 00:09:04;;;;;;;;;13.25;12.00;;;;;;;;5097686;27;45436;-62
2023/10/13 00:11:29;;;;;;;;;16.25;12.25;;;;;;;;5097547;27;45507;-62
2023/10/13 00:13:54;;;;;;;;;13.75;12.25;;;;;;;;5097533;27;45555;-62
2023/10/13 00:16:27;;;;;;;;;11.75;11.75;;;;;;;;5079276;27;45448;-62
2023/10/13 00:18:55;;;;;;;;;12.75;11.25;;;;;;;;5097510;27;45486;-62
2023/10/13 00:21:33;;;;;;;;;13.00;6.75;;;;;;;;5097467;27;45745;-62
2023/10/13 00:24:01;;;;;;;;;13.20;9.80;;;;;;;;5097711;27;45519;-62
2023/10/13 00:26:28;;;;;;;;;20.75;20.75;;;;;;;;5097370;27;45599;-62
2023/10/13 00:29:15;;;;;;;;;16.00;14.00;;;;;;;;5097180;27;45379;-62
2023/10/13 00:31:42;;;;;;;;;10.00;10.00;;;;;;;;5097539;27;46656;-62
2023/10/13 00:34:27;;;;;;;;;8.80;8.80;;;;;;;;5097607;27;45372;-62
2023/10/13 00:39:36;;;;;;;;;13.75;12.25;;;;;;;;5097178;27;45409;-62
2023/10/13 00:42:17;;;;;;;;;13.00;10.25;;;;;;;;5096833;27;45442;-62
2023/10/13 00:44:43;;;;;;;;;8.20;8.20;;;;;;;;5097317;27;45408;-62
2023/10/13 00:49:56;;;;;;;;;12.75;11.25;;;;;;;;5096887;27;45402;-62
2023/10/13 00:52:22;;;;;;;;;9.00;8.25;;;;;;;;5096923;27;45646;-63
2023/10/13 00:54:47;;;;;;;;;13.25;9.25;;;;;;;;5096993;27;45395;-62
2023/10/13 00:57:34;;;;;;;;;15.00;14.25;;;;;;;;5096636;27;45356;-62
2023/10/13 01:00:12;;;;;;;;;8.25;6.75;;;;;;;;5096641;27;45392;-62
2023/10/13 01:02:37;;;;;;;;;12.25;11.50;;;;;;;;5096687;27;47308;-62
2023/10/13 01:05:09;;;;;;;;;12.75;11.75;;;;;;;;5075814;27;45582;-63
2023/10/13 01:07:37;;;;;;;;;15.25;12.00;;;;;;;;5076129;28;45278;-62
2023/10/13 01:10:04;;;;;;;;;7.50;6.00;;;;;;;;5057720;28;45400;-63
2023/10/13 01:12:31;;;;;;;;;15.25;12.25;;;;;;;;5075651;28;45432;-62
2023/10/13 01:14:57;;;;;;;;;9.80;8.60;;;;;;;;5075951;28;45301;-62
2023/10/13 01:17:23;;;;;;;;;10.25;9.75;;;;;;;;5076320;28;45481;-62
2023/10/13 01:19:49;;;;;;;;;12.00;10.00;;;;;;;;5075845;28;45435;-62
2023/10/13 01:22:14;;;;;;;;;9.50;9.50;;;;;;;;5075513;28;45616;-63
2023/10/13 01:24:39;;;;;;;;;8.75;7.00;;;;;;;;5075359;28;45368;-64
2023/10/13 01:27:17;;;;;;;;;9.50;9.00;;;;;;;;5075837;28;45338;-62
2023/10/13 01:29:47;;;;;;;;;10.75;10.00;;;;;;;;5075685;28;45346;-64
2023/10/13 01:32:13;;;;;;;;;13.25;11.50;;;;;;;;5075533;28;46302;-62
2023/10/13 01:34:38;;;;;;;;;11.50;10.25;;;;;;;;5075944;28;45359;-63
2023/10/13 01:37:06;;;;;;;;;14.25;12.50;;;;;;;;5076429;28;45339;-62
2023/10/13 01:39:31;;;;;;;;;11.50;11.00;;;;;;;;5075876;28;45467;-62
2023/10/13 01:41:56;;;;;;;;;16.75;14.50;;;;;;;;5075294;28;46340;-63
2023/10/13 01:44:22;;;;;;;;;12.50;11.75;;;;;;;;5075650;28;45358;-63
2023/10/13 01:46:47;;;;;;;;;12.00;10.00;;;;;;;;5076097;28;45413;-62
2023/10/13 01:49:15;;;;;;;;;13.50;12.00;;;;;;;;5074915;28;45424;-63
2023/10/13 01:51:40;;;;;;;;;12.50;11.50;;;;;;;;5075655;28;45541;-62
2023/10/13 01:54:11;;;;;;;;;11.75;10.50;;;;;;;;5057093;28;45459;-62
2023/10/13 01:56:42;;;;;;;;;13.00;11.75;;;;;;;;5075963;28;45390;-62
2023/10/13 01:59:09;;;;;;;;;13.75;13.75;;;;;;;;5075877;28;45436;-63
2023/10/13 02:01:34;;;;;;;;;17.50;14.25;;;;;;;;5075165;28;46496;-62
2023/10/13 02:04:06;;;;;;;;;13.00;13.00;;;;;;;;5075528;28;45305;-62
2023/10/13 02:06:32;;;;;;;;;14.25;13.50;;;;;;;;5071599;27;45489;-63
2023/10/13 02:09:10;;;;;;;;;4.50;3.75;;;;;;;;5096099;27;45380;-62
2023/10/13 02:11:37;;;;;;;;;13.50;12.25;;;;;;;;5096024;27;46256;-63
2023/10/13 02:14:02;;;;;;;;;12.00;12.00;;;;;;;;5095450;27;45339;-63
2023/10/13 02:16:28;;;;;;;;;11.00;10.00;;;;;;;;5095718;27;45523;-62
2023/10/13 02:18:54;;;;;;;;;13.25;12.25;;;;;;;;5095711;27;45495;-63
2023/10/13 02:21:19;;;;;;;;;13.50;12.25;;;;;;;;5095245;27;46233;-62
2023/10/13 02:23:59;;;;;;;;;12.00;12.00;;;;;;;;5095545;27;45454;-62
2023/10/13 02:26:31;;;;;;;;;7.50;6.75;;;;;;;;5095898;27;45651;-62
2023/10/13 02:29:03;;;;;;;;;7.00;7.00;;;;;;;;5095369;27;45357;-62
2023/10/13 02:31:28;;;;;;;;;12.25;10.50;;;;;;;;5095603;27;46197;-62
2023/10/13 02:33:53;;;;;;;;;12.50;10.50;;;;;;;;5077672;27;45510;-62
